Time;durP1;ratioP1;P1;durP2;ratioP2;P2;SDS_P1;SDS_P2;PMS_P1;PMS_P2;Temp;Humidity;BMP_temperature;BMP_pressure;BME280_temperature;BME280_humidity;BME280_pressure;Samples;Min_cycle;Max_cycle;Signal;HPM_P1;HPM_P2
2021/05/10 00:02:16;;;;;;;4.23;1.77;;;21.00;92.20;;;;;;6407084;22;20184;-88
2021/05/10 00:04:42;;;;;;;3.60;1.93;;;21.00;92.00;;;;;;6407698;22;20142;-88
2021/05/10 00:07:11;;;;;;;2.73;2.00;;;20.90;92.70;;;;;;6406660;22;20644;-88
2021/05/10 00:09:39;;;;;;;3.63;2.10;;;21.00;92.60;;;;;;6406502;22;20138;-89
2021/05/10 00:12:08;;;;;;;5.37;2.13;;;20.90;93.30;;;;;;6406922;22;20158;-89
2021/05/10 00:14:40;;;;;;;3.57;1.83;;;20.90;93.10;;;;;;6407822;22;20592;-89
2021/05/10 00:17:08;;;;;;;3.10;2.03;;;20.90;92.90;;;;;;6406621;22;20184;-89
2021/05/10 00:19:33;;;;;;;3.97;2.30;;;20.90;93.00;;;;;;6406980;22;20150;-88
2021/05/10 00:22:03;;;;;;;4.47;2.33;;;20.90;93.30;;;;;;6406033;22;20177;-89
2021/05/10 00:24:29;;;;;;;1.97;1.80;;;20.70;93.60;;;;;;6432583;22;20172;-89
2021/05/10 00:26:56;;;;;;;3.43;2.07;;;20.70;93.00;;;;;;6433514;22;20569;-88
2021/05/10 00:29:24;;;;;;;3.00;1.87;;;20.80;92.90;;;;;;6406383;22;20194;-88
2021/05/10 00:31:53;;;;;;;3.33;1.97;;;20.80;93.30;;;;;;6406980;22;20457;-89
2021/05/10 00:34:22;;;;;;;3.07;1.90;;;20.80;92.50;;;;;;6406536;22;20161;-88
2021/05/10 00:36:47;;;;;;;1.97;1.50;;;20.80;92.60;;;;;;6406895;22;20563;-88
2021/05/10 00:39:13;;;;;;;4.53;1.90;;;20.70;92.50;;;;;;6406253;22;20149;-89
2021/05/10 00:41:39;;;;;;;3.37;1.83;;;20.80;93.20;;;;;;6406668;22;20181;-88
2021/05/10 00:44:11;;;;;;;3.37;1.70;;;20.80;93.10;;;;;;6406470;22;20150;-89
2021/05/10 00:46:39;;;;;;;2.53;2.00;;;20.80;93.00;;;;;;6407269;22;20209;-89
2021/05/10 00:49:07;;;;;;;4.40;1.90;;;20.70;93.30;;;;;;6434126;22;20787;-89
2021/05/10 00:51:35;;;;;;;3.57;1.97;;;20.70;92.90;;;;;;6408334;22;20160;-88
2021/05/10 00:54:03;;;;;;;2.90;1.70;;;20.80;92.70;;;;;;6408049;22;20157;-88
2021/05/10 00:56:30;;;;;;;3.30;1.60;;;20.90;92.30;;;;;;6380442;22;20150;-88
2021/05/10 00:58:57;;;;;;;3.53;1.80;;;20.70;92.00;;;;;;6434979;22;20154;-87
2021/05/10 01:01:23;;;;;;;3.23;2.30;;;20.80;92.00;;;;;;6434898;22;20187;-88
2021/05/10 01:03:54;;;;;;;3.83;2.03;;;20.80;91.50;;;;;;6434239;22;20166;-88
2021/05/10 01:06:23;;;;;;;3.33;2.00;;;21.00;90.90;;;;;;6433707;22;20143;-88
2021/05/10 01:08:51;;;;;;;3.47;1.70;;;20.70;91.50;;;;;;6433407;22;20156;-88
2021/05/10 01:11:20;;;;;;;4.50;2.10;;;20.80;91.10;;;;;;6406760;22;20207;-88
2021/05/10 01:13:51;;;;;;;2.60;1.70;;;20.80;90.80;;;;;;6407170;22;20149;-88
2021/05/10 01:16:19;;;;;;;3.43;1.87;;;20.70;91.10;;;;;;6407589;22;20189;-88
2021/05/10 01:18:48;;;;;;;4.77;1.83;;;20.70;91.00;;;;;;6406824;22;20221;-88
2021/05/10 01:21:14;;;;;;;6.90;2.10;;;20.80;90.50;;;;;;6406382;22;20137;-88
2021/05/10 01:23:41;;;;;;;6.63;1.90;;;20.70;90.90;;;;;;6433465;22;20149;-88
2021/05/10 01:26:09;;;;;;;2.90;2.10;;;20.40;91.20;;;;;;6406597;22;20171;-88
2021/05/10 01:28:38;;;;;;;2.97;2.13;;;20.30;91.70;;;;;;6406407;22;20244;-88
2021/05/10 01:31:06;;;;;;;3.13;1.93;;;20.30;91.90;;;;;;6406712;22;20216;-88
2021/05/10 01:33:32;;;;;;;4.43;2.10;;;20.30;91.90;;;;;;6406395;22;20180;-86
2021/05/10 01:36:01;;;;;;;3.87;2.03;;;20.40;91.80;;;;;;6406923;22;20156;-88
2021/05/10 01:38:30;;;;;;;3.83;2.07;;;20.20;92.60;;;;;;6406804;22;20141;-88
2021/05/10 01:40:55;;;;;;;3.43;2.10;;;20.10;93.00;;;;;;6406473;22;20210;-88
2021/05/10 01:43:24;;;;;;;2.80;2.20;;;20.20;92.30;;;;;;6406261;22;20689;-87
2021/05/10 01:45:56;;;;;;;2.37;2.07;;;20.30;92.20;;;;;;6408224;22;20141;-88
2021/05/10 01:48:22;;;;;;;2.63;1.87;;;20.20;92.20;;;;;;6408770;22;20149;-88
2021/05/10 01:50:49;;;;;;;6.77;2.43;;;20.20;92.20;;;;;;6408431;22;20155;-88
2021/05/10 01:53:16;;;;;;;3.07;2.20;;;20.40;91.60;;;;;;6408513;22;20230;-88
2021/05/10 01:55:45;;;;;;;3.93;2.20;;;20.40;91.50;;;;;;6435883;22;20154;-88
2021/05/10 01:58:14;;;;;;;3.07;2.10;;;20.30;91.10;;;;;;6408489;22;20153;-88
2021/05/10 02:00:48;;;;;;;3.53;1.90;;;20.50;90.70;;;;;;6407492;22;20193;-88
2021/05/10 02:03:21;;;;;;;6.53;2.13;;;20.40;90.30;;;;;;6408505;22;20243;-88
2021/05/10 02:05:51;;;;;;;4.17;2.07;;;20.30;90.20;;;;;;6435386;22;20141;-88
2021/05/10 02:08:20;;;;;;;5.10;1.97;;;20.30;90.20;;;;;;6435323;22;20143;-88
2021/05/10 02:10:50;;;;;;;4.77;1.90;;;20.30;89.30;;;;;;6434842;22;20151;-87
2021/05/10 02:13:22;;;;;;;4.57;1.90;;;20.20;88.80;;;;;;6408339;22;20135;-87
2021/05/10 02:15:52;;;;;;;2.60;1.77;;;20.10;89.30;;;;;;6435035;22;20147;-87
2021/05/10 02:18:21;;;;;;;3.70;2.10;;;20.10;88.40;;;;;;6435240;22;20135;-87
2021/05/10 02:20:48;;;;;;;2.90;1.80;;;20.10;87.70;;;;;;6434540;22;20156;-88
2021/05/10 02:23:20;;;;;;;2.53;1.53;;;20.20;86.80;;;;;;6435003;22;20176;-87
2021/05/10 02:25:48;;;;;;;4.27;2.17;;;20.10;86.40;;;;;;6435299;22;20168;-88
2021/05/10 02:28:25;;;;;;;4.13;1.50;;;20.10;86.30;;;;;;6435029;22;20226;-88
2021/05/10 02:30:54;;;;;;;2.27;1.73;;;20.10;85.90;;;;;;6408534;22;20135;-88
2021/05/10 02:33:33;;;;;;;5.07;1.50;;;20.20;86.00;;;;;;6437403;22;20227;-87
2021/05/10 02:36:00;;;;;;;3.43;1.73;;;20.10;85.70;;;;;;6440093;22;20139;-87
2021/05/10 02:38:28;;;;;;;3.57;1.60;;;20.00;85.90;;;;;;6416531;22;20143;-88
2021/05/10 02:40:54;;;;;;;2.73;1.47;;;20.00;86.40;;;;;;6415896;22;20176;-87
2021/05/10 02:43:24;;;;;;;7.47;1.80;;;20.00;86.90;;;;;;6408829;22;20183;-87
2021/05/10 02:45:53;;;;;;;5.13;1.97;;;20.00;87.00;;;;;;6435120;22;20140;-88
2021/05/10 02:48:26;;;;;;;3.43;1.57;;;20.00;87.10;;;;;;6434155;22;20179;-87
2021/05/10 02:50:58;;;;;;;2.90;1.90;;;20.00;87.40;;;;;;6408127;22;20147;-86
2021/05/10 02:53:24;;;;;;;4.03;2.00;;;20.00;87.80;;;;;;6408017;22;20606;-87
2021/05/10 02:55:53;;;;;;;3.23;1.90;;;19.90;89.10;;;;;;6407888;22;20135;-87
2021/05/10 02:58:20;;;;;;;4.23;1.80;;;19.80;90.30;;;;;;6407784;22;20552;-87
2021/05/10 03:00:45;;;;;;;4.23;1.93;;;19.80;90.70;;;;;;6407709;22;20586;-86
2021/05/10 03:03:14;;;;;;;3.87;2.30;;;19.60;91.20;;;;;;6407916;22;20218;-87
2021/05/10 03:05:42;;;;;;;4.13;2.10;;;19.50;91.70;;;;;;6407015;22;20579;-87
2021/05/10 03:08:08;;;;;;;4.30;2.33;;;19.40;92.00;;;;;;6408314;22;20174;-87
2021/05/10 03:10:34;;;;;;;4.93;2.27;;;19.40;92.20;;;;;;6407232;22;20159;-87
2021/05/10 03:13:03;;;;;;;4.83;2.80;;;19.40;92.70;;;;;;6407865;22;20144;-87
2021/05/10 03:15:29;;;;;;;3.80;2.77;;;19.30;93.00;;;;;;6434534;22;20231;-87
2021/05/10 03:17:54;;;;;;;5.50;3.17;;;19.20;93.50;;;;;;6407599;22;20143;-87
2021/05/10 03:20:35;;;;;;;5.97;3.00;;;19.20;94.20;;;;;;6410422;22;20167;-86
2021/05/10 03:23:29;;;;;;;5.33;2.60;;;19.00;95.20;;;;;;6410805;22;20190;-86
2021/05/10 03:25:58;;;;;;;4.47;2.93;;;18.30;99.50;;;;;;6408680;22;20150;-86
2021/05/10 03:28:36;;;;;;;4.47;3.37;;;17.80;99.90;;;;;;6409075;22;20142;-88
2021/05/10 03:31:04;;;;;;;6.77;3.17;;;17.50;99.90;;;;;;6408516;22;20593;-88
2021/05/10 03:33:32;;;;;;;5.63;3.23;;;17.30;99.90;;;;;;6408649;22;20169;-87
2021/05/10 03:36:01;;;;;;;6.50;3.80;;;17.20;99.90;;;;;;6408570;22;20146;-88
2021/05/10 03:38:30;;;;;;;7.27;4.73;;;17.20;99.90;;;;;;6408351;22;20144;-88
2021/05/10 03:41:03;;;;;;;6.57;4.47;;;17.10;99.90;;;;;;6408157;22;20141;-87
2021/05/10 03:43:29;;;;;;;9.37;4.87;;;17.00;99.90;;;;;;6408262;22;20178;-88
2021/05/10 03:45:56;;;;;;;11.67;5.00;;;17.00;99.90;;;;;;6409238;22;20230;-87
2021/05/10 03:48:25;;;;;;;8.73;5.17;;;17.00;99.90;;;;;;6408851;22;20614;-87
2021/05/10 03:50:51;;;;;;;7.03;5.43;;;16.90;99.90;;;;;;6408308;22;20595;-88
2021/05/10 03:53:22;;;;;;;12.60;7.60;;;17.00;99.90;;;;;;6408221;22;20596;-88
2021/05/10 03:55:51;;;;;;;7.33;5.60;;;17.00;99.90;;;;;;6434896;22;20144;-86
2021/05/10 03:58:19;;;;;;;9.10;6.00;;;17.00;99.90;;;;;;6435038;22;20193;-87
2021/05/10 04:00:46;;;;;;;8.70;6.37;;;17.00;99.90;;;;;;6408717;22;20494;-86
2021/05/10 04:03:16;;;;;;;6.10;5.40;;;17.00;99.90;;;;;;6408131;22;20199;-87
2021/05/10 04:11:32;;;;;;;9.60;6.00;;;17.20;99.90;;;;;;6434918;22;20149;-88
2021/05/10 04:14:01;;;;;;;5.83;5.13;;;17.10;99.90;;;;;;6406593;22;20152;-86
2021/05/10 04:16:30;;;;;;;9.37;5.30;;;17.00;99.90;;;;;;6407674;22;20171;-86
2021/05/10 04:18:59;;;;;;;5.83;4.80;;;17.00;99.90;;;;;;6406193;22;20157;-86
2021/05/10 04:21:24;;;;;;;7.10;4.27;;;17.00;99.90;;;;;;6407089;22;20142;-86
2021/05/10 04:23:53;;;;;;;6.10;3.20;;;16.90;99.90;;;;;;6406600;22;20174;-86
2021/05/10 04:26:22;;;;;;;3.50;3.20;;;16.80;99.90;;;;;;6407328;22;20629;-89
2021/05/10 04:28:50;;;;;;;5.87;3.00;;;16.80;99.90;;;;;;6406988;22;20176;-86
2021/05/10 04:31:16;;;;;;;4.30;2.37;;;16.70;99.90;;;;;;6406836;22;20152;-86
2021/05/10 04:33:45;;;;;;;6.27;2.27;;;16.60;99.90;;;;;;6406583;22;20253;-87
2021/05/10 04:36:10;;;;;;;4.67;2.60;;;16.60;99.90;;;;;;6407060;22;20155;-87
2021/05/10 04:38:42;;;;;;;4.07;2.50;;;16.60;99.90;;;;;;6406808;22;20166;-86
2021/05/10 04:41:11;;;;;;;5.73;2.67;;;16.50;99.90;;;;;;6406400;22;20155;-85
2021/05/10 04:43:37;;;;;;;3.33;1.80;;;16.50;99.90;;;;;;6406062;22;20186;-87
2021/05/10 04:46:04;;;;;;;4.87;3.10;;;16.40;99.90;;;;;;6406136;22;20580;-86
2021/05/10 04:48:33;;;;;;;4.40;2.40;;;16.50;99.90;;;;;;6406686;22;20202;-87
2021/05/10 04:50:59;;;;;;;2.23;2.03;;;16.40;99.90;;;;;;6407739;22;20146;-88
2021/05/10 04:53:27;;;;;;;3.90;2.43;;;16.50;99.90;;;;;;6407618;22;20165;-87
2021/05/10 04:55:57;;;;;;;2.17;2.00;;;16.60;99.90;;;;;;6407821;22;20143;-87
2021/05/10 04:58:24;;;;;;;4.80;3.70;;;16.50;99.90;;;;;;6434703;22;20148;-86
2021/05/10 05:00:56;;;;;;;2.20;1.70;;;16.40;99.90;;;;;;6408862;22;20198;-86
2021/05/10 05:03:21;;;;;;;4.27;1.37;;;16.50;99.90;;;;;;6407733;22;20554;-86
2021/05/10 05:05:47;;;;;;;3.13;2.33;;;16.50;99.90;;;;;;6408728;22;20140;-87
2021/05/10 05:08:14;;;;;;;2.80;2.00;;;16.70;99.90;;;;;;6408318;22;20185;-87
2021/05/10 05:10:41;;;;;;;2.23;1.50;;;16.70;99.90;;;;;;6408502;22;20139;-88
2021/05/10 05:13:06;;;;;;;1.90;1.70;;;16.70;99.90;;;;;;6409637;22;20216;-87
2021/05/10 05:15:32;;;;;;;4.73;3.50;;;16.70;99.90;;;;;;6411110;22;20523;-86
2021/05/10 05:17:57;;;;;;;3.80;2.10;;;16.60;99.90;;;;;;6411489;22;20149;-88
2021/05/10 05:20:23;;;;;;;1.80;1.43;;;16.60;99.90;;;;;;6415794;22;20142;-88
2021/05/10 05:22:49;;;;;;;2.07;1.60;;;16.60;99.90;;;;;;6419796;22;20214;-87
2021/05/10 05:25:15;;;;;;;2.60;1.63;;;16.60;99.90;;;;;;6391269;22;20164;-87
2021/05/10 05:27:41;;;;;;;1.57;1.30;;;16.80;99.90;;;;;;6411239;22;20140;-85
2021/05/10 05:30:09;;;;;;;3.40;1.47;;;16.60;99.90;;;;;;6411741;22;20139;-88
2021/05/10 05:32:35;;;;;;;5.10;3.67;;;16.60;99.90;;;;;;6436319;22;20564;-87
2021/05/10 05:35:01;;;;;;;3.73;1.80;;;16.60;99.90;;;;;;6437204;22;20193;-87
2021/05/10 05:37:26;;;;;;;4.30;3.10;;;16.40;99.90;;;;;;6409433;22;20231;-87
2021/05/10 05:39:53;;;;;;;3.23;2.53;;;16.40;99.90;;;;;;6409338;22;20162;-87
2021/05/10 05:42:19;;;;;;;3.10;2.37;;;16.50;99.90;;;;;;6409300;22;20183;-88
2021/05/10 05:44:49;;;;;;;2.23;1.73;;;16.50;99.90;;;;;;6409286;22;20242;-87
2021/05/10 05:47:22;;;;;;;5.73;2.47;;;16.50;99.90;;;;;;6409658;22;20601;-87
2021/05/10 05:49:47;;;;;;;4.17;1.50;;;16.30;99.90;;;;;;6436262;22;20143;-87
2021/05/10 05:52:13;;;;;;;2.57;1.50;;;16.40;99.90;;;;;;6408889;22;20143;-87
2021/05/10 05:54:39;;;;;;;2.43;2.20;;;16.30;99.90;;;;;;6409081;22;20207;-87
2021/05/10 05:57:05;;;;;;;3.57;1.73;;;16.40;99.90;;;;;;6410269;22;20237;-87
2021/05/10 05:59:31;;;;;;;1.47;1.30;;;16.50;99.90;;;;;;6436508;22;20146;-87
2021/05/10 06:01:56;;;;;;;5.70;1.67;;;16.40;99.90;;;;;;6405719;22;20264;-87
2021/05/10 06:04:22;;;;;;;2.80;1.57;;;16.40;99.90;;;;;;6408533;22;20154;-87
2021/05/10 06:06:48;;;;;;;2.27;1.80;;;16.40;99.90;;;;;;6408300;22;20155;-87
2021/05/10 06:09:14;;;;;;;2.43;2.00;;;16.40;99.90;;;;;;6408083;22;20157;-87
2021/05/10 06:11:39;;;;;;;4.80;2.30;;;16.40;99.90;;;;;;6408126;22;20223;-87
2021/05/10 06:14:05;;;;;;;2.17;1.97;;;16.40;99.90;;;;;;6408486;22;20188;-87
2021/05/10 06:16:31;;;;;;;3.33;1.90;;;16.40;99.90;;;;;;6408170;22;20205;-87
2021/05/10 06:18:57;;;;;;;2.90;2.00;;;16.50;99.90;;;;;;6408522;22;20147;-88
2021/05/10 06:21:23;;;;;;;3.37;2.10;;;16.50;99.90;;;;;;6434885;22;20590;-87
2021/05/10 06:23:49;;;;;;;3.43;2.37;;;16.50;99.90;;;;;;6408801;22;20497;-87
2021/05/10 06:26:15;;;;;;;6.13;4.50;;;16.60;99.90;;;;;;6408270;22;20140;-87
2021/05/10 06:28:41;;;;;;;3.03;2.50;;;16.60;99.90;;;;;;6408078;22;20212;-87
2021/05/10 06:31:08;;;;;;;5.63;4.17;;;16.60;99.90;;;;;;6434106;22;20167;-87
2021/05/10 06:33:34;;;;;;;2.77;2.23;;;16.80;99.90;;;;;;6434985;22;20167;-87
2021/05/10 06:36:00;;;;;;;8.47;5.23;;;16.80;99.90;;;;;;6408428;22;20572;-87
2021/05/10 06:38:25;;;;;;;7.60;5.67;;;16.80;99.90;;;;;;6409488;22;20157;-88
2021/05/10 06:40:51;;;;;;;14.10;9.53;;;16.90;99.90;;;;;;6409583;22;20198;-88
2021/05/10 06:43:17;;;;;;;5.97;4.70;;;17.00;99.90;;;;;;6409248;22;20510;-88
2021/05/10 06:45:43;;;;;;;17.83;10.13;;;17.10;99.90;;;;;;6406939;22;20564;-87
2021/05/10 06:48:09;;;;;;;6.43;5.00;;;17.20;99.90;;;;;;6436414;22;20148;-86
2021/05/10 06:50:35;;;;;;;8.00;5.17;;;17.20;99.90;;;;;;6440442;22;20510;-87
2021/05/10 06:53:00;;;;;;;4.93;3.03;;;17.10;99.90;;;;;;6412022;22;20148;-87
2021/05/10 06:55:26;;;;;;;3.40;2.73;;;17.00;99.90;;;;;;6410230;22;20152;-86
2021/05/10 06:57:52;;;;;;;3.30;2.13;;;17.10;99.90;;;;;;6410747;22;20514;-87
2021/05/10 07:00:18;;;;;;;3.30;1.60;;;17.00;99.90;;;;;;6410365;22;20197;-86
2021/05/10 07:02:43;;;;;;;2.13;1.80;;;17.00;99.90;;;;;;6437703;22;20772;-87
2021/05/10 07:05:09;;;;;;;2.93;2.00;;;16.90;99.90;;;;;;6410629;22;20151;-87
2021/05/10 07:07:35;;;;;;;3.27;2.43;;;16.90;99.90;;;;;;6437633;22;20146;-87
2021/05/10 07:10:01;;;;;;;4.83;1.93;;;17.10;99.90;;;;;;6410424;22;20152;-88
2021/05/10 07:12:28;;;;;;;5.00;1.90;;;17.30;99.90;;;;;;6439253;22;20148;-88
2021/05/10 07:14:53;;;;;;;4.73;2.00;;;17.50;99.90;;;;;;6410076;22;20142;-88
2021/05/10 07:17:19;;;;;;;3.97;2.30;;;17.70;99.90;;;;;;6409117;22;20542;-89
2021/05/10 07:19:45;;;;;;;2.83;1.83;;;18.00;99.90;;;;;;6382935;22;20165;-89
2021/05/10 07:22:10;;;;;;;2.97;2.23;;;17.80;99.90;;;;;;6409129;22;20188;-88
2021/05/10 07:24:36;;;;;;;4.97;2.10;;;17.90;99.90;;;;;;6409267;22;20176;-88
2021/05/10 07:27:02;;;;;;;3.60;1.97;;;17.90;99.90;;;;;;6408854;22;20236;-89
2021/05/10 07:29:27;;;;;;;5.63;2.50;;;17.80;99.90;;;;;;6409150;22;20587;-88
2021/05/10 07:31:53;;;;;;;3.80;2.10;;;17.80;99.90;;;;;;6408685;22;20154;-88
2021/05/10 07:34:21;;;;;;;5.23;2.27;;;17.90;99.90;;;;;;6408821;22;20204;-88
2021/05/10 07:36:47;;;;;;;6.20;2.77;;;18.00;99.90;;;;;;6408316;22;20582;-88
2021/05/10 07:39:14;;;;;;;5.87;3.10;;;17.90;99.90;;;;;;6408941;22;20142;-88
2021/05/10 07:41:40;;;;;;;5.10;2.40;;;17.80;99.90;;;;;;6410509;22;20212;-88
2021/05/10 07:44:05;;;;;;;9.53;3.03;;;17.70;99.90;;;;;;6409645;22;20185;-88
2021/05/10 07:46:31;;;;;;;3.83;2.70;;;17.50;99.90;;;;;;6436083;22;20201;-89
2021/05/10 07:48:58;;;;;;;4.70;2.97;;;17.60;99.90;;;;;;6410934;22;20765;-88
2021/05/10 07:51:23;;;;;;;5.73;2.60;;;17.80;99.90;;;;;;6411594;22;20519;-88
2021/05/10 07:53:49;;;;;;;5.13;2.77;;;17.80;99.90;;;;;;6409344;22;20171;-88
2021/05/10 07:56:15;;;;;;;5.17;2.90;;;17.90;99.90;;;;;;6408670;22;20189;-88
2021/05/10 07:58:44;;;;;;;5.53;2.70;;;17.90;99.90;;;;;;6409280;22;20140;-88
2021/05/10 08:01:10;;;;;;;5.37;3.00;;;17.90;99.90;;;;;;6407179;22;20151;-87
2021/05/10 08:03:36;;;;;;;5.93;3.40;;;18.00;99.90;;;;;;6407502;22;20185;-88
2021/05/10 08:06:03;;;;;;;5.03;3.00;;;18.10;99.90;;;;;;6407894;22;20150;-87
2021/05/10 08:08:29;;;;;;;7.43;2.90;;;18.10;99.90;;;;;;6435848;22;20156;-88
2021/05/10 08:10:55;;;;;;;4.70;2.90;;;18.10;99.90;;;;;;6409232;22;20178;-87
2021/05/10 08:13:21;;;;;;;5.57;3.23;;;18.00;99.90;;;;;;6408719;22;20149;-87
2021/05/10 08:15:47;;;;;;;7.47;3.47;;;17.90;99.90;;;;;;6408701;22;20161;-88
2021/05/10 08:18:13;;;;;;;9.63;2.93;;;17.70;99.90;;;;;;6408271;22;20148;-87
2021/05/10 08:20:40;;;;;;;6.97;3.20;;;17.60;99.90;;;;;;6435543;22;20150;-87
2021/05/10 08:23:07;;;;;;;3.83;3.07;;;17.60;99.90;;;;;;6435151;22;20215;-87
2021/05/10 08:25:32;;;;;;;7.40;3.10;;;17.60;99.90;;;;;;6408607;22;20169;-86
2021/05/10 08:28:00;;;;;;;8.93;2.90;;;17.80;99.90;;;;;;6410147;22;20150;-87
2021/05/10 08:30:26;;;;;;;4.93;2.70;;;17.80;99.90;;;;;;6420154;22;20147;-87
2021/05/10 08:32:54;;;;;;;5.30;2.80;;;17.70;99.90;;;;;;6422059;22;20160;-86
2021/05/10 08:35:19;;;;;;;5.27;2.83;;;17.60;99.90;;;;;;6414010;22;20144;-88
2021/05/10 08:37:45;;;;;;;8.80;3.63;;;17.70;99.90;;;;;;6410335;22;20153;-88
2021/05/10 08:40:11;;;;;;;4.77;2.57;;;17.70;99.90;;;;;;6409693;22;20148;-88
2021/05/10 08:42:37;;;;;;;6.50;2.57;;;17.70;99.90;;;;;;6409681;22;20192;-88
2021/05/10 08:45:03;;;;;;;6.90;2.77;;;17.60;99.80;;;;;;6435061;22;20216;-89
2021/05/10 08:47:32;;;;;;;5.53;2.90;;;17.60;99.50;;;;;;6434836;22;20607;-86
2021/05/10 08:49:59;;;;;;;6.50;2.10;;;17.60;99.70;;;;;;6408530;22;20147;-89
2021/05/10 08:52:25;;;;;;;5.70;2.70;;;17.70;99.30;;;;;;6434869;22;20153;-88
2021/05/10 08:54:51;;;;;;;5.10;2.60;;;17.70;99.30;;;;;;6409273;22;20520;-89
2021/05/10 08:57:17;;;;;;;8.60;2.67;;;18.00;99.20;;;;;;6411089;22;20222;-89
2021/05/10 08:59:43;;;;;;;5.40;2.70;;;18.20;98.60;;;;;;6411113;22;20150;-89
2021/05/10 09:02:09;;;;;;;5.57;2.50;;;18.40;98.50;;;;;;6438364;22;20185;-89
2021/05/10 09:04:37;;;;;;;7.60;2.93;;;18.20;98.10;;;;;;6444576;22;20129;-88
2021/05/10 09:07:30;;;;;;;6.17;2.37;;;17.90;98.20;;;;;;6463551;22;20150;-88
2021/05/10 09:09:59;;;;;;;6.13;2.03;;;17.70;98.20;;;;;;6422799;22;20161;-89
2021/05/10 09:12:46;;;;;;;7.60;2.80;;;17.80;97.60;;;;;;6445912;22;20236;-89
2021/05/10 09:15:16;;;;;;;12.27;3.03;;;17.90;98.00;;;;;;6438499;22;20158;-89
2021/05/10 09:17:57;;;;;;;7.10;3.00;;;18.00;98.10;;;;;;6437598;22;20165;-88
2021/05/10 09:20:27;;;;;;;11.40;2.37;;;17.90;98.20;;;;;;6437515;22;20229;-89
2021/05/10 09:22:58;;;;;;;6.23;2.27;;;17.90;96.90;;;;;;6436304;22;20199;-89
2021/05/10 09:25:34;;;;;;;5.77;2.23;;;18.20;97.00;;;;;;6435828;22;20178;-88
2021/05/10 09:28:18;;;;;;;8.47;1.93;;;18.40;96.00;;;;;;6435914;22;20146;-89
2021/05/10 09:30:45;;;;;;;5.87;2.03;;;18.70;94.10;;;;;;6408950;22;20151;-89
2021/05/10 09:33:16;;;;;;;4.27;1.87;;;18.70;92.70;;;;;;6435677;22;20220;-89
2021/05/10 09:35:41;;;;;;;8.17;1.53;;;18.50;91.30;;;;;;6408838;22;20150;-89
2021/05/10 09:38:07;;;;;;;6.63;1.93;;;18.40;89.90;;;;;;6408970;22;20154;-89
2021/05/10 09:40:43;;;;;;;7.50;1.70;;;18.30;86.90;;;;;;6408246;22;20154;-89
2021/05/10 09:43:11;;;;;;;4.53;1.57;;;18.30;87.60;;;;;;6408002;22;20238;-90
2021/05/10 09:45:47;;;;;;;5.13;1.43;;;18.40;86.70;;;;;;6435069;22;20147;-89
2021/05/10 09:48:15;;;;;;;8.97;1.60;;;18.50;87.10;;;;;;6434938;22;20138;-89
2021/05/10 09:50:45;;;;;;;2.80;1.30;;;18.90;86.60;;;;;;6408615;22;20177;-89
2021/05/10 09:53:15;;;;;;;7.50;1.93;;;19.00;86.10;;;;;;6435906;22;20155;-89
2021/05/10 09:55:55;;;;;;;12.00;2.07;;;19.20;85.00;;;;;;6436804;22;20146;-88
2021/05/10 09:58:23;;;;;;;8.60;1.93;;;19.30;84.80;;;;;;6434477;22;20220;-88
2021/05/10 10:00:56;;;;;;;5.73;1.40;;;19.20;84.70;;;;;;6435099;22;20517;-88
2021/05/10 10:03:24;;;;;;;5.30;1.80;;;19.10;86.30;;;;;;6435156;22;20518;-88
2021/05/10 10:05:56;;;;;;;5.10;1.50;;;18.90;87.00;;;;;;6408287;22;20230;-89
2021/05/10 10:08:23;;;;;;;3.53;2.00;;;18.90;88.10;;;;;;6435417;22;20178;-89
2021/05/10 10:10:49;;;;;;;3.57;1.77;;;18.80;90.00;;;;;;6435328;22;20150;-88
2021/05/10 10:13:16;;;;;;;5.73;1.80;;;18.90;90.00;;;;;;6408149;22;20230;-88
2021/05/10 10:15:42;;;;;;;3.80;1.90;;;19.00;90.10;;;;;;6435222;22;20229;-88
2021/05/10 10:18:11;;;;;;;8.23;2.00;;;19.20;89.50;;;;;;6435634;22;20241;-88
2021/05/10 10:20:38;;;;;;;3.53;1.53;;;19.10;88.50;;;;;;6408355;22;20156;-88
2021/05/10 10:23:07;;;;;;;2.70;1.60;;;19.20;88.60;;;;;;6436280;22;20504;-88
2021/05/10 10:25:35;;;;;;;7.83;1.83;;;19.30;88.20;;;;;;6436809;22;20600;-88
2021/05/10 10:28:01;;;;;;;6.70;2.07;;;19.20;89.10;;;;;;6436444;22;20151;-87
2021/05/10 10:30:27;;;;;;;5.97;2.43;;;19.20;90.30;;;;;;6409911;22;20151;-89
2021/05/10 10:32:55;;;;;;;5.77;2.00;;;18.90;91.40;;;;;;6411810;22;20196;-89
2021/05/10 10:35:23;;;;;;;4.80;2.17;;;19.00;91.30;;;;;;6438637;22;20199;-88
2021/05/10 10:37:50;;;;;;;4.53;2.33;;;19.20;91.30;;;;;;6439894;22;20147;-88
2021/05/10 10:40:20;;;;;;;7.33;2.90;;;19.20;91.60;;;;;;6411534;22;20147;-87
2021/05/10 10:42:48;;;;;;;5.63;2.53;;;19.20;91.50;;;;;;6386357;22;20522;-86
2021/05/10 10:45:22;;;;;;;6.07;2.37;;;19.20;90.90;;;;;;6435713;22;20153;-87
2021/05/10 10:47:53;;;;;;;6.13;2.13;;;19.20;90.40;;;;;;6436953;22;20185;-90
2021/05/10 10:50:24;;;;;;;7.03;1.90;;;19.00;89.80;;;;;;6436215;22;20151;-89
2021/05/10 10:52:56;;;;;;;8.20;2.33;;;18.90;88.50;;;;;;6436338;22;20159;-86
2021/05/10 10:55:27;;;;;;;4.50;2.23;;;18.90;89.80;;;;;;6437155;22;20173;-89
2021/05/10 10:58:14;;;;;;;4.77;2.43;;;18.90;89.90;;;;;;6437184;22;20154;-89
2021/05/10 11:01:00;;;;;;;3.40;1.83;;;19.10;90.00;;;;;;6435655;22;20151;-89
2021/05/10 11:03:27;;;;;;;5.37;2.00;;;19.30;87.10;;;;;;6435190;22;20269;-88
2021/05/10 11:05:53;;;;;;;5.13;2.17;;;19.10;86.60;;;;;;6434615;22;20473;-88
2021/05/10 11:08:46;;;;;;;5.27;2.03;;;19.10;86.00;;;;;;6409208;22;20206;-89
2021/05/10 11:11:33;;;;;;;6.00;1.93;;;19.00;86.20;;;;;;6435660;22;20234;-88
2021/05/10 11:13:59;;;;;;;5.83;2.30;;;19.40;85.70;;;;;;6388094;22;20159;-89
2021/05/10 11:16:48;;;;;;;7.20;2.40;;;20.00;85.30;;;;;;6436010;22;20209;-87
2021/05/10 11:19:37;;;;;;;5.57;2.30;;;20.90;82.70;;;;;;6436441;22;20178;-89
2021/05/10 11:22:29;;;;;;;6.90;1.20;;;21.20;79.80;;;;;;6435571;22;20183;-89
2021/05/10 11:24:54;;;;;;;3.27;1.33;;;21.20;78.80;;;;;;6407897;22;20174;-88
2021/05/10 11:27:32;;;;;;;4.43;1.10;;;20.80;78.30;;;;;;6408998;22;20155;-88
2021/05/10 11:29:57;;;;;;;3.63;1.10;;;20.70;78.70;;;;;;6410807;22;20230;-88
2021/05/10 11:32:25;;;;;;;5.17;1.10;;;20.80;78.60;;;;;;6415208;22;20629;-88
2021/05/10 11:34:51;;;;;;;4.77;1.50;;;20.80;78.70;;;;;;6447493;22;20171;-88
2021/05/10 11:37:26;;;;;;;4.33;1.23;;;21.20;78.40;;;;;;6427682;22;20154;-88
2021/05/10 11:39:57;;;;;;;5.90;1.20;;;22.00;75.50;;;;;;6443119;22;20220;-88
2021/05/10 11:42:27;;;;;;;4.83;1.50;;;22.50;73.30;;;;;;6442153;22;20183;-88
2021/05/10 11:45:01;;;;;;;7.73;1.27;;;23.20;71.80;;;;;;6441979;22;20151;-89
2021/05/10 11:47:27;;;;;;;4.77;1.50;;;24.00;69.90;;;;;;6442046;22;20151;-89
2021/05/10 11:49:57;;;;;;;3.10;1.10;;;24.60;68.50;;;;;;6411543;22;20195;-89
2021/05/10 11:52:25;;;;;;;8.20;1.20;;;25.30;67.00;;;;;;6413999;22;20206;-90
2021/05/10 11:54:57;;;;;;;5.33;1.10;;;26.20;65.50;;;;;;6440456;22;20145;-89
2021/05/10 11:57:34;;;;;;;3.77;1.70;;;25.70;64.70;;;;;;6440473;22;20182;-89
2021/05/10 12:02:32;;;;;;;5.83;2.73;;;23.10;69.50;;;;;;6463320;22;20179;-88
2021/05/10 12:05:07;;;;;;;7.73;2.23;;;22.60;71.40;;;;;;6434105;22;20143;-88
2021/05/10 12:07:34;;;;;;;3.23;1.10;;;23.10;71.60;;;;;;6461683;22;20149;-88
2021/05/10 12:10:03;;;;;;;7.93;1.60;;;24.20;69.30;;;;;;6456261;22;20189;-89
2021/05/10 12:12:31;;;;;;;4.20;1.80;;;24.30;68.30;;;;;;6417137;22;20155;-89
2021/05/10 12:15:06;;;;;;;4.93;1.30;;;24.50;67.70;;;;;;6414008;22;20241;-86
2021/05/10 12:17:33;;;;;;;4.63;1.40;;;23.70;68.30;;;;;;6442161;22;20210;-87
2021/05/10 12:20:15;;;;;;;6.80;1.60;;;24.10;67.90;;;;;;6440296;22;20467;-88
2021/05/10 12:22:43;;;;;;;4.90;1.30;;;25.30;65.00;;;;;;6440911;22;20515;-88
2021/05/10 12:25:25;;;;;;;5.00;1.33;;;26.40;62.70;;;;;;6412508;22;20181;-87
2021/05/10 12:28:10;;;;;;;6.83;1.17;;;27.00;61.60;;;;;;6437503;22;20155;-87
2021/05/10 12:30:59;;;;;;;7.13;1.47;;;26.90;61.50;;;;;;6440468;22;20139;-87
2021/05/10 12:33:26;;;;;;;4.90;1.30;;;26.90;61.40;;;;;;6440887;22;20192;-89
2021/05/10 12:36:11;;;;;;;3.73;1.40;;;26.70;60.70;;;;;;6440494;22;20583;-89
2021/05/10 12:38:39;;;;;;;5.30;1.33;;;27.50;59.90;;;;;;6439097;22;20150;-88
2021/05/10 12:41:08;;;;;;;3.60;1.27;;;27.70;57.80;;;;;;6439714;22;20162;-90
2021/05/10 12:43:44;;;;;;;2.97;1.10;;;27.20;59.00;;;;;;6439334;22;20280;-89
2021/05/10 12:46:10;;;;;;;4.67;1.13;;;25.70;60.70;;;;;;6440158;22;20199;-89
2021/05/10 12:48:42;;;;;;;5.80;1.37;;;25.80;62.40;;;;;;6413910;22;20234;-88
2021/05/10 12:51:11;;;;;;;6.53;1.17;;;25.60;61.30;;;;;;6440536;22;20143;-88
2021/05/10 12:54:02;;;;;;;7.13;1.57;;;25.40;61.60;;;;;;6440749;22;20161;-88
2021/05/10 12:56:29;;;;;;;3.47;1.00;;;25.20;62.10;;;;;;6398363;22;20155;-89
2021/05/10 12:59:00;;;;;;;6.90;1.37;;;24.60;61.80;;;;;;6413757;22;20155;-87
2021/05/10 13:01:31;;;;;;;6.43;1.30;;;24.10;61.90;;;;;;6436004;22;20151;-89
2021/05/10 13:04:04;;;;;;;4.03;1.27;;;24.60;61.80;;;;;;6408132;22;20158;-90